sensor_id;sensor_type;location;lat;lon;timestamp;pressure;altitude;pressure_sealevel;temperature;humidity
60244;BME280;46106;51.468;5.814;2024-01-06T18:29:01;101149.50;;;2.48;100.00
60244;BME280;46106;51.468;5.814;2024-01-06T18:48:22;101152.81;;;2.32;100.00
60244;BME280;46106;51.468;5.814;2024-01-06T18:50:48;101165.25;;;2.36;100.00
60244;BME280;46106;51.468;5.814;2024-01-06T18:53:13;101166.88;;;2.41;100.00
60244;BME280;46106;51.468;5.814;2024-01-06T18:55:40;101153.59;;;2.34;100.00
60244;BME280;46106;51.468;5.814;2024-01-06T18:58:06;101165.25;;;2.36;100.00
60244;BME280;46106;51.468;5.814;2024-01-06T19:00:34;101187.56;;;2.42;100.00
60244;BME280;46106;51.468;5.814;2024-01-06T19:03:03;101175.44;;;2.30;100.00
60244;BME280;46106;51.468;5.814;2024-01-06T19:05:29;101176.75;;;2.42;100.00
60244;BME280;46106;51.468;5.814;2024-01-06T19:07:56;101170.72;;;2.35;100.00
60244;BME280;46106;51.468;5.814;2024-01-06T19:10:22;101178.44;;;2.44;100.00
60244;BME280;46106;51.468;5.814;2024-01-06T19:12:48;101177.81;;;2.37;100.00
60244;BME280;46106;51.468;5.814;2024-01-06T19:15:15;101184.19;;;2.36;100.00
60244;BME280;46106;51.468;5.814;2024-01-06T19:17:40;101189.59;;;2.36;100.00
60244;BME280;46106;51.468;5.814;2024-01-06T19:20:11;101190.84;;;2.26;100.00
60244;BME280;46106;51.468;5.814;2024-01-06T19:22:38;101198.72;;;2.32;100.00
60244;BME280;46106;51.468;5.814;2024-01-06T19:25:04;101193.22;;;2.35;100.00
60244;BME280;46106;51.468;5.814;2024-01-06T19:27:30;101197.03;;;2.30;100.00
60244;BME280;46106;51.468;5.814;2024-01-06T19:29:57;101218.78;;;2.27;100.00
60244;BME280;46106;51.468;5.814;2024-01-06T19:32:24;101213.72;;;2.17;100.00
60244;BME280;46106;51.468;5.814;2024-01-06T19:34:50;101211.78;;;2.21;100.00
60244;BME280;46106;51.468;5.814;2024-01-06T19:37:19;101219.75;;;2.24;100.00
60244;BME280;46106;51.468;5.814;2024-01-06T19:39:45;101221.66;;;2.22;100.00
60244;BME280;46106;51.468;5.814;2024-01-06T19:42:10;101224.34;;;2.22;100.00
60244;BME280;46106;51.468;5.814;2024-01-06T19:44:36;101231.81;;;2.15;100.00
60244;BME280;46106;51.468;5.814;2024-01-06T19:47:01;101238.78;;;2.21;100.00
60244;BME280;46106;51.468;5.814;2024-01-06T19:49:28;101236.03;;;2.23;100.00
60244;BME280;46106;51.468;5.814;2024-01-06T19:51:54;101237.97;;;2.19;100.00
60244;BME280;46106;51.468;5.814;2024-01-06T19:54:20;101238.09;;;2.16;100.00
60244;BME280;46106;51.468;5.814;2024-01-06T19:56:45;101242.56;;;2.17;100.00
60244;BME280;46106;51.468;5.814;2024-01-06T19:59:12;101240.78;;;2.16;100.00
60244;BME280;46106;51.468;5.814;2024-01-06T20:01:38;101239.75;;;2.20;100.00
60244;BME280;46106;51.468;5.814;2024-01-06T20:04:04;101250.66;;;2.17;100.00
60244;BME280;46106;51.468;5.814;2024-01-06T20:06:29;101250.44;;;2.23;100.00
60244;BME280;46106;51.468;5.814;2024-01-06T20:08:55;101249.91;;;2.13;100.00
60244;BME280;46106;51.468;5.814;2024-01-06T20:11:20;101243.84;;;2.07;100.00
60244;BME280;46106;51.468;5.814;2024-01-06T20:13:46;101247.38;;;2.09;100.00
60244;BME280;46106;51.468;5.814;2024-01-06T20:16:17;101249.38;;;2.04;100.00
60244;BME280;46106;51.468;5.814;2024-01-06T20:18:42;101248.94;;;2.14;100.00
60244;BME280;46106;51.468;5.814;2024-01-06T20:21:12;101245.59;;;2.08;100.00
60244;BME280;46106;51.468;5.814;2024-01-06T20:23:38;101256.19;;;2.14;100.00
60244;BME280;46106;51.468;5.814;2024-01-06T20:26:04;101250.25;;;2.04;100.00
60244;BME280;46106;51.468;5.814;2024-01-06T20:28:32;101249.16;;;2.08;100.00
60244;BME280;46106;51.468;5.814;2024-01-06T20:30:58;101253.81;;;2.05;100.00
60244;BME280;46106;51.468;5.814;2024-01-06T20:33:24;101250.41;;;1.99;100.00
60244;BME280;46106;51.468;5.814;2024-01-06T20:35:51;101253.16;;;1.98;100.00
60244;BME280;46106;51.468;5.814;2024-01-06T20:38:17;101256.75;;;1.98;100.00
60244;BME280;46106;51.468;5.814;2024-01-06T20:40:43;101252.34;;;1.96;100.00
60244;BME280;46106;51.468;5.814;2024-01-06T20:43:09;101257.78;;;1.94;100.00
60244;BME280;46106;51.468;5.814;2024-01-06T20:48:35;101261.66;;;1.87;100.00
60244;BME280;46106;51.468;5.814;2024-01-06T20:51:01;101256.97;;;1.92;100.00
60244;BME280;46106;51.468;5.814;2024-01-06T20:53:27;101265.84;;;1.96;100.00
60244;BME280;46106;51.468;5.814;2024-01-06T20:56:23;101266.66;;;1.98;100.00
60244;BME280;46106;51.468;5.814;2024-01-06T20:59:17;101271.41;;;1.91;100.00
60244;BME280;46106;51.468;5.814;2024-01-06T21:01:45;101276.00;;;1.89;100.00
60244;BME280;46106;51.468;5.814;2024-01-06T21:10:20;101280.69;;;1.84;100.00
60244;BME280;46106;51.468;5.814;2024-01-06T21:12:47;101257.81;;;1.69;100.00
60244;BME280;46106;51.468;5.814;2024-01-06T21:15:13;101276.41;;;1.77;100.00
60244;BME280;46106;51.468;5.814;2024-01-06T21:17:40;101271.25;;;1.71;100.00
60244;BME280;46106;51.468;5.814;2024-01-06T21:20:07;101263.47;;;1.61;100.00
60244;BME280;46106;51.468;5.814;2024-01-06T21:22:33;101275.97;;;1.64;100.00
60244;BME280;46106;51.468;5.814;2024-01-06T21:24:59;101285.00;;;1.63;100.00
60244;BME280;46106;51.468;5.814;2024-01-06T21:27:27;101271.53;;;1.63;100.00
60244;BME280;46106;51.468;5.814;2024-01-06T21:29:53;101274.38;;;1.58;100.00
60244;BME280;46106;51.468;5.814;2024-01-06T21:32:18;101281.81;;;1.52;100.00
60244;BME280;46106;51.468;5.814;2024-01-06T21:34:43;101274.53;;;1.54;100.00
60244;BME280;46106;51.468;5.814;2024-01-06T21:37:10;101278.66;;;1.64;100.00
60244;BME280;46106;51.468;5.814;2024-01-06T21:39:37;101289.84;;;1.53;100.00
60244;BME280;46106;51.468;5.814;2024-01-06T21:42:03;101285.44;;;1.51;100.00
60244;BME280;46106;51.468;5.814;2024-01-06T21:44:29;101280.06;;;1.49;100.00
60244;BME280;46106;51.468;5.814;2024-01-06T21:46:55;101283.56;;;1.53;100.00
60244;BME280;46106;51.468;5.814;2024-01-06T21:49:22;101289.91;;;1.52;100.00
60244;BME280;46106;51.468;5.814;2024-01-06T21:54:23;101278.22;;;1.51;100.00
60244;BME280;46106;51.468;5.814;2024-01-06T22:01:59;101291.00;;;1.46;100.00
60244;BME280;46106;51.468;5.814;2024-01-06T22:04:24;101299.78;;;1.53;100.00
60244;BME280;46106;51.468;5.814;2024-01-06T22:06:50;101300.44;;;1.59;100.00
60244;BME280;46106;51.468;5.814;2024-01-06T22:09:15;101303.34;;;1.53;100.00
60244;BME280;46106;51.468;5.814;2024-01-06T22:11:41;101303.44;;;1.50;100.00
60244;BME280;46106;51.468;5.814;2024-01-06T22:14:07;101303.28;;;1.55;100.00
60244;BME280;46106;51.468;5.814;2024-01-06T22:16:32;101309.50;;;1.57;100.00
60244;BME280;46106;51.468;5.814;2024-01-06T22:18:58;101310.63;;;1.51;100.00
60244;BME280;46106;51.468;5.814;2024-01-06T22:21:23;101307.09;;;1.47;100.00
60244;BME280;46106;51.468;5.814;2024-01-06T22:23:50;101316.22;;;1.45;100.00
60244;BME280;46106;51.468;5.814;2024-01-06T22:26:16;101308.03;;;1.48;100.00
60244;BME280;46106;51.468;5.814;2024-01-06T22:28:41;101308.16;;;1.43;100.00
60244;BME280;46106;51.468;5.814;2024-01-06T22:31:07;101310.88;;;1.43;100.00
60244;BME280;46106;51.468;5.814;2024-01-06T22:33:33;101310.91;;;1.42;100.00
60244;BME280;46106;51.468;5.814;2024-01-06T22:35:58;101314.66;;;1.38;100.00
60244;BME280;46106;51.468;5.814;2024-01-06T22:38:24;101320.16;;;1.35;100.00
60244;BME280;46106;51.468;5.814;2024-01-06T22:40:51;101319.34;;;1.31;100.00
60244;BME280;46106;51.468;5.814;2024-01-06T22:43:17;101320.25;;;1.32;100.00
60244;BME280;46106;51.468;5.814;2024-01-06T22:45:42;101322.38;;;1.22;100.00
60244;BME280;46106;51.468;5.814;2024-01-06T22:48:07;101319.47;;;1.28;100.00
60244;BME280;46106;51.468;5.814;2024-01-06T22:50:33;101323.88;;;1.31;100.00
60244;BME280;46106;51.468;5.814;2024-01-06T22:53:01;101329.28;;;1.31;100.00
60244;BME280;46106;51.468;5.814;2024-01-06T22:55:27;101337.59;;;1.23;100.00
60244;BME280;46106;51.468;5.814;2024-01-06T22:57:52;101337.78;;;1.18;100.00
60244;BME280;46106;51.468;5.814;2024-01-06T23:00:18;101335.91;;;1.20;100.00
60244;BME280;46106;51.468;5.814;2024-01-06T23:02:58;101335.81;;;1.23;100.00
60244;BME280;46106;51.468;5.814;2024-01-06T23:05:23;101344.19;;;1.14;100.00
60244;BME280;46106;51.468;5.814;2024-01-06T23:07:49;101344.97;;;1.18;100.00
60244;BME280;46106;51.468;5.814;2024-01-06T23:10:15;101343.91;;;1.23;100.00
60244;BME280;46106;51.468;5.814;2024-01-06T23:12:41;101337.59;;;1.23;100.00
60244;BME280;46106;51.468;5.814;2024-01-06T23:15:08;101344.00;;;1.20;100.00
60244;BME280;46106;51.468;5.814;2024-01-06T23:17:34;101351.03;;;1.24;100.00
60244;BME280;46106;51.468;5.814;2024-01-06T23:19:59;101339.44;;;1.22;100.00
60244;BME280;46106;51.468;5.814;2024-01-06T23:22:25;101341.84;;;1.32;100.00
60244;BME280;46106;51.468;5.814;2024-01-06T23:24:52;101351.78;;;1.29;100.00
60244;BME280;46106;51.468;5.814;2024-01-06T23:27:17;101355.47;;;1.27;100.00
60244;BME280;46106;51.468;5.814;2024-01-06T23:29:43;101359.09;;;1.26;100.00
60244;BME280;46106;51.468;5.814;2024-01-06T23:32:08;101361.78;;;1.26;100.00
60244;BME280;46106;51.468;5.814;2024-01-06T23:34:39;101359.88;;;1.29;100.00
60244;BME280;46106;51.468;5.814;2024-01-06T23:37:08;101353.00;;;1.19;100.00
60244;BME280;46106;51.468;5.814;2024-01-06T23:39:35;101360.75;;;1.30;100.00
60244;BME280;46106;51.468;5.814;2024-01-06T23:42:01;101365.16;;;1.33;100.00
60244;BME280;46106;51.468;5.814;2024-01-06T23:44:27;101362.50;;;1.31;100.00
60244;BME280;46106;51.468;5.814;2024-01-06T23:46:52;101367.94;;;1.29;100.00
60244;BME280;46106;51.468;5.814;2024-01-06T23:49:18;101361.63;;;1.31;100.00
60244;BME280;46106;51.468;5.814;2024-01-06T23:51:44;101365.25;;;1.29;100.00
60244;BME280;46106;51.468;5.814;2024-01-06T23:54:13;101365.13;;;1.34;100.00
60244;BME280;46106;51.468;5.814;2024-01-06T23:56:39;101372.66;;;1.23;100.00
60244;BME280;46106;51.468;5.814;2024-01-06T23:59:05;101367.00;;;1.32;100.00
